Time;durP1;ratioP1;P1;durP2;ratioP2;P2;SDS_P1;SDS_P2;PMS_P1;PMS_P2;Temp;Humidity;BMP_temperature;BMP_pressure;BME280_temperature;BME280_humidity;BME280_pressure;Samples;Min_cycle;Max_cycle;Signal;HPM_P1;HPM_P2
2023/06/07 00:01:15;;;;;;;;;;;;;;;23.66;62.87;101939.13;5060709;28;19913;-54
2023/06/07 00:03:41;;;;;;;;;;;;;;;23.41;64.10;101935.03;5061380;28;19980;-50
2023/06/07 00:06:09;;;;;;;;;;;;;;;23.59;63.19;101925.66;5062407;28;19913;-53
2023/06/07 00:08:35;;;;;;;;;;;;;;;23.49;63.68;101939.19;5063561;28;19921;-52
2023/06/07 00:11:00;;;;;;;;;;;;;;;23.53;63.16;101940.34;5063761;28;19917;-51
2023/06/07 00:13:26;;;;;;;;;;;;;;;23.43;63.57;101937.50;5057741;28;19924;-53
2023/06/07 00:15:51;;;;;;;;;;;;;;;23.46;63.30;101945.16;5058723;28;20001;-52
2023/06/07 00:18:19;;;;;;;;;;;;;;;23.33;63.64;101941.78;5063937;28;19913;-55
2023/06/07 00:20:45;;;;;;;;;;;;;;;23.57;63.37;101949.69;5062039;28;19920;-51
2023/06/07 00:23:13;;;;;;;;;;;;;;;23.56;62.84;101944.47;5059862;28;19976;-55
2023/06/07 00:25:38;;;;;;;;;;;;;;;23.27;63.62;101941.97;5056396;28;19921;-54
2023/06/07 00:28:04;;;;;;;;;;;;;;;23.44;63.09;101956.38;5063160;28;19897;-55
2023/06/07 00:30:29;;;;;;;;;;;;;;;23.15;64.62;101945.59;5060178;28;19916;-51
2023/06/07 00:32:55;;;;;;;;;;;;;;;23.29;64.16;101942.53;5061306;28;19980;-54
2023/06/07 00:35:20;;;;;;;;;;;;;;;23.00;65.22;101939.97;5059720;28;19917;-53
2023/06/07 00:37:46;;;;;;;;;;;;;;;23.12;64.86;101943.38;5063309;28;19909;-52
2023/06/07 00:40:11;;;;;;;;;;;;;;;23.16;64.92;101943.72;5038747;28;19940;-53
2023/06/07 00:42:37;;;;;;;;;;;;;;;22.76;66.65;101943.72;5025294;28;19913;-55
2023/06/07 00:45:03;;;;;;;;;;;;;;;22.98;65.95;101934.75;5043428;28;19917;-56
2023/06/07 00:47:28;;;;;;;;;;;;;;;23.03;65.18;101934.00;5059857;28;19913;-56
2023/06/07 00:49:55;;;;;;;;;;;;;;;22.99;65.39;101936.41;5063607;28;19947;-56
2023/06/07 00:52:21;;;;;;;;;;;;;;;22.91;65.81;101934.13;5057230;28;19921;-56
2023/06/07 00:54:46;;;;;;;;;;;;;;;22.67;66.67;101928.91;5060638;28;19927;-51
2023/06/07 00:57:12;;;;;;;;;;;;;;;22.56;67.99;101927.06;5044194;28;19913;-56
2023/06/07 00:59:38;;;;;;;;;;;;;;;22.59;67.97;101932.03;5039370;28;19980;-56
2023/06/07 01:02:04;;;;;;;;;;;;;;;22.72;67.79;101928.97;5038090;28;19920;-55
2023/06/07 01:04:30;;;;;;;;;;;;;;;22.62;67.57;101926.09;5042417;28;19924;-51
2023/06/07 01:06:56;;;;;;;;;;;;;;;22.60;67.91;101930.94;5057786;28;19913;-54
2023/06/07 01:09:22;;;;;;;;;;;;;;;22.16;70.14;101928.91;5061948;28;19951;-56
2023/06/07 01:11:50;;;;;;;;;;;;;;;22.53;68.99;101938.47;5057999;28;20032;-56
2023/06/07 01:14:18;;;;;;;;;;;;;;;22.55;68.38;101931.72;5056854;28;19916;-56
2023/06/07 01:16:44;;;;;;;;;;;;;;;22.41;69.48;101931.22;5057259;28;19919;-56
2023/06/07 01:19:16;;;;;;;;;;;;;;;22.21;70.50;101923.53;5037647;28;19917;-55
2023/06/07 01:21:42;;;;;;;;;;;;;;;22.10;70.78;101925.25;5061224;28;19913;-55
2023/06/07 01:24:09;;;;;;;;;;;;;;;22.16;71.10;101934.34;5055811;28;19936;-56
2023/06/07 01:26:36;;;;;;;;;;;;;;;22.14;71.22;101936.50;5059053;28;19956;-52
2023/06/07 01:29:06;;;;;;;;;;;;;;;22.17;71.76;101928.66;5039571;28;19935;-54
2023/06/07 01:31:35;;;;;;;;;;;;;;;22.41;70.47;101924.91;5059428;28;19913;-52
2023/06/07 01:34:02;;;;;;;;;;;;;;;22.09;71.93;101923.59;5038852;28;19940;-52
2023/06/07 01:36:29;;;;;;;;;;;;;;;22.15;71.79;101928.09;5039771;28;19912;-53
2023/06/07 01:38:55;;;;;;;;;;;;;;;22.22;71.20;101927.09;5058980;28;19912;-54
2023/06/07 01:41:21;;;;;;;;;;;;;;;22.22;71.28;101927.09;5038488;28;19920;-52
2023/06/07 01:43:48;;;;;;;;;;;;;;;22.23;71.52;101926.81;5061116;28;19913;-54
2023/06/07 01:46:14;;;;;;;;;;;;;;;22.09;71.76;101918.16;5039353;28;19916;-54
2023/06/07 01:48:40;;;;;;;;;;;;;;;22.02;72.23;101918.31;5056758;28;19913;-54
2023/06/07 01:51:06;;;;;;;;;;;;;;;21.89;73.36;101924.91;5037264;28;20004;-51
2023/06/07 01:53:32;;;;;;;;;;;;;;;21.89;73.41;101924.09;5056293;28;19984;-55
2023/06/07 01:56:03;;;;;;;;;;;;;;;21.76;74.13;101925.22;5060223;28;19920;-56
2023/06/07 01:58:34;;;;;;;;;;;;;;;21.95;73.78;101919.56;5041304;28;19920;-54
2023/06/07 02:01:02;;;;;;;;;;;;;;;21.77;75.16;101918.72;5040831;28;19928;-56
2023/06/07 02:03:33;;;;;;;;;;;;;;;21.75;74.74;101920.84;5039353;28;19952;-54
2023/06/07 02:06:03;;;;;;;;;;;;;;;21.72;75.57;101916.72;5059059;28;19971;-56
2023/06/07 02:08:29;;;;;;;;;;;;;;;21.78;75.13;101923.91;5040725;28;19956;-53
2023/06/07 02:10:56;;;;;;;;;;;;;;;21.60;76.26;101910.50;5028631;28;19944;-55
2023/06/07 02:13:24;;;;;;;;;;;;;;;21.63;76.26;101905.38;5022226;28;19971;-52
2023/06/07 02:15:49;;;;;;;;;;;;;;;21.68;76.15;101909.28;5021409;28;19924;-53
2023/06/07 02:18:18;;;;;;;;;;;;;;;21.63;76.84;101905.38;5024337;28;19944;-53
2023/06/07 02:20:43;;;;;;;;;;;;;;;21.53;76.82;101904.34;5018692;28;19941;-52
2023/06/07 02:23:09;;;;;;;;;;;;;;;21.53;76.85;101901.63;5023131;28;19981;-53
2023/06/07 02:25:35;;;;;;;;;;;;;;;21.51;77.45;101898.31;5022628;28;19913;-54
2023/06/07 02:28:02;;;;;;;;;;;;;;;21.82;75.19;101907.91;5025687;28;19984;-56
2023/06/07 02:30:27;;;;;;;;;;;;;;;21.69;76.20;101905.50;5020177;28;19958;-53
2023/06/07 02:32:54;;;;;;;;;;;;;;;21.54;76.74;101901.41;5020889;28;19924;-53
2023/06/07 02:35:20;;;;;;;;;;;;;;;21.53;77.26;101898.91;5019187;28;19913;-52
2023/06/07 02:37:45;;;;;;;;;;;;;;;21.02;80.79;101899.56;5021981;28;19913;-54
2023/06/07 02:40:12;;;;;;;;;;;;;;;21.34;79.08;101901.84;5024052;28;19914;-54
2023/06/07 02:42:38;;;;;;;;;;;;;;;21.24;79.55;101896.19;5026808;28;19913;-52
2023/06/07 02:45:04;;;;;;;;;;;;;;;21.15;80.49;101909.34;5025650;28;19952;-52
2023/06/07 02:47:30;;;;;;;;;;;;;;;21.09;81.01;101904.88;5023462;28;19920;-54
2023/06/07 02:49:57;;;;;;;;;;;;;;;21.22;80.07;101904.59;5022511;28;19914;-56
2023/06/07 02:52:26;;;;;;;;;;;;;;;21.24;80.17;101907.06;5023044;28;19952;-55
2023/06/07 02:54:52;;;;;;;;;;;;;;;21.14;81.31;101907.69;5025765;28;19921;-52
2023/06/07 02:57:18;;;;;;;;;;;;;;;21.03;82.17;101912.09;5028770;28;19913;-54
2023/06/07 02:59:44;;;;;;;;;;;;;;;20.76;83.89;101910.69;5023734;28;19914;-50
2023/06/07 03:02:17;;;;;;;;;;;;;;;21.01;83.40;101911.50;5019952;28;19937;-50
2023/06/07 03:04:46;;;;;;;;;;;;;;;21.01;83.28;101917.78;5023149;28;19969;-53
2023/06/07 03:07:13;;;;;;;;;;;;;;;21.09;82.93;101921.19;5019039;28;19917;-52
2023/06/07 03:09:41;;;;;;;;;;;;;;;21.09;82.76;101926.63;5020560;28;20008;-53
2023/06/07 03:12:07;;;;;;;;;;;;;;;21.11;82.37;101919.06;5022391;28;19981;-56
2023/06/07 03:14:38;;;;;;;;;;;;;;;21.32;80.80;101912.97;5029710;28;19921;-52
2023/06/07 03:17:04;;;;;;;;;;;;;;;21.25;81.05;101915.00;5022673;28;19937;-50
2023/06/07 03:19:35;;;;;;;;;;;;;;;21.13;82.55;101916.91;5018542;28;19928;-50
2023/06/07 03:22:02;;;;;;;;;;;;;;;20.96;84.83;101917.66;5020529;28;19922;-54
2023/06/07 03:24:28;;;;;;;;;;;;;;;20.98;83.84;101923.69;5020512;28;19920;-51
2023/06/07 03:26:54;;;;;;;;;;;;;;;20.82;86.33;101919.81;5025816;28;19953;-53
2023/06/07 03:29:20;;;;;;;;;;;;;;;21.05;83.67;101924.38;5030680;28;19940;-52
2023/06/07 03:31:46;;;;;;;;;;;;;;;21.22;82.79;101925.53;5022558;28;19973;-51
2023/06/07 03:34:15;;;;;;;;;;;;;;;21.04;83.38;101916.47;5025681;28;19921;-54
2023/06/07 03:36:40;;;;;;;;;;;;;;;20.69;86.85;101920.84;5024393;28;19913;-51
2023/06/07 03:39:08;;;;;;;;;;;;;;;21.15;83.65;101920.22;5028320;28;19948;-51
2023/06/07 03:41:34;;;;;;;;;;;;;;;21.29;81.73;101929.78;5025592;28;19925;-52
2023/06/07 03:44:04;;;;;;;;;;;;;;;21.30;81.31;101931.41;5024535;28;19913;-49
2023/06/07 03:46:30;;;;;;;;;;;;;;;21.17;82.77;101926.25;5029970;28;19976;-52
2023/06/07 03:48:56;;;;;;;;;;;;;;;20.97;84.30;101924.75;5027125;28;19914;-53
2023/06/07 03:51:23;;;;;;;;;;;;;;;21.09;82.75;101932.88;5030339;28;19921;-54
2023/06/07 03:53:49;;;;;;;;;;;;;;;21.03;83.41;101936.56;5024817;28;19921;-50
2023/06/07 03:56:15;;;;;;;;;;;;;;;20.87;84.31;101927.25;5024361;28;19910;-55
2023/06/07 03:58:41;;;;;;;;;;;;;;;20.86;84.70;101933.75;5022236;28;19960;-52
2023/06/07 04:01:11;;;;;;;;;;;;;;;20.92;84.69;101932.78;5026978;28;19913;-53
2023/06/07 04:03:37;;;;;;;;;;;;;;;21.02;83.91;101927.59;5026558;28;19920;-53
2023/06/07 04:06:05;;;;;;;;;;;;;;;20.91;85.10;101929.28;5016871;28;19937;-49
2023/06/07 04:08:35;;;;;;;;;;;;;;;21.02;83.29;101922.16;5028270;28;19925;-49
2023/06/07 04:11:01;;;;;;;;;;;;;;;21.10;82.44;101925.56;5039342;28;19917;-53
2023/06/07 04:13:28;;;;;;;;;;;;;;;21.09;83.16;101915.75;5038189;28;19918;-53
2023/06/07 04:15:54;;;;;;;;;;;;;;;20.93;83.73;101920.84;5036265;28;19952;-52
2023/06/07 04:18:19;;;;;;;;;;;;;;;20.87;84.98;101921.81;5041824;28;19971;-53
2023/06/07 04:20:45;;;;;;;;;;;;;;;20.81;85.55;101926.31;5037626;28;19956;-55
2023/06/07 04:23:12;;;;;;;;;;;;;;;20.78;85.10;101922.16;5025115;28;19980;-54
2023/06/07 04:25:39;;;;;;;;;;;;;;;21.00;84.07;101923.44;5039508;28;19913;-54
2023/06/07 04:28:08;;;;;;;;;;;;;;;21.17;83.16;101928.97;5039211;28;19913;-52
2023/06/07 04:30:34;;;;;;;;;;;;;;;21.20;82.59;101929.31;5037877;28;19913;-52
2023/06/07 04:33:03;;;;;;;;;;;;;;;21.13;83.45;101925.91;5039432;28;19944;-54
2023/06/07 04:35:31;;;;;;;;;;;;;;;20.88;84.97;101926.19;5039228;28;19917;-56
2023/06/07 04:37:57;;;;;;;;;;;;;;;20.93;83.61;101929.00;5038230;28;19920;-56
2023/06/07 04:40:23;;;;;;;;;;;;;;;20.85;85.61;101932.09;5043527;28;19977;-54
2023/06/07 04:42:55;;;;;;;;;;;;;;;21.20;83.10;101936.63;5033132;28;19921;-50
2023/06/07 04:45:28;;;;;;;;;;;;;;;21.17;81.95;101937.13;5037814;28;19921;-53
2023/06/07 04:47:58;;;;;;;;;;;;;;;21.27;82.06;101939.22;5033856;28;19963;-52
2023/06/07 04:50:24;;;;;;;;;;;;;;;21.09;84.06;101938.31;5037971;28;19988;-56
2023/06/07 04:52:50;;;;;;;;;;;;;;;21.19;81.79;101930.38;5023225;28;19936;-50
2023/06/07 04:55:17;;;;;;;;;;;;;;;21.33;82.13;101936.38;5032598;28;19914;-55
2023/06/07 04:57:45;;;;;;;;;;;;;;;21.17;82.95;101937.13;5033747;28;19980;-56
2023/06/07 05:00:14;;;;;;;;;;;;;;;21.22;81.84;101931.81;5044095;28;19972;-54
2023/06/07 05:02:44;;;;;;;;;;;;;;;21.40;80.97;101938.13;5037115;28;19924;-54
2023/06/07 05:05:13;;;;;;;;;;;;;;;21.40;81.93;101935.41;5025706;28;19913;-55
2023/06/07 05:07:42;;;;;;;;;;;;;;;21.46;81.56;101937.97;5035664;28;20307;-53
2023/06/07 05:10:07;;;;;;;;;;;;;;;21.56;80.41;101931.06;5049432;28;19971;-53
2023/06/07 05:12:33;;;;;;;;;;;;;;;21.55;79.96;101941.16;5045019;28;19917;-52
2023/06/07 05:14:59;;;;;;;;;;;;;;;21.64;79.27;101941.59;5040772;28;19920;-55
2023/06/07 05:17:29;;;;;;;;;;;;;;;21.66;79.26;101938.63;5054000;28;19913;-57
2023/06/07 05:19:55;;;;;;;;;;;;;;;21.61;79.74;101937.44;5040311;28;19916;-54
2023/06/07 05:22:22;;;;;;;;;;;;;;;21.35;81.01;101942.41;5044760;28;19913;-56
2023/06/07 05:24:47;;;;;;;;;;;;;;;21.56;80.34;101933.78;5055126;28;19923;-54
2023/06/07 05:27:14;;;;;;;;;;;;;;;21.28;81.60;101941.72;5042819;28;19936;-56
2023/06/07 05:29:39;;;;;;;;;;;;;;;21.12;84.01;101943.31;5042458;28;20004;-56
2023/06/07 05:32:05;;;;;;;;;;;;;;;21.48;81.63;101943.19;5039432;28;19916;-53
2023/06/07 05:34:32;;;;;;;;;;;;;;;21.47;80.94;101947.00;5035628;28;19913;-50
2023/06/07 05:36:58;;;;;;;;;;;;;;;21.24;82.37;101947.88;5040040;28;19913;-50
2023/06/07 05:39:26;;;;;;;;;;;;;;;21.52;80.03;101954.41;5045319;28;19913;-52
2023/06/07 05:41:52;;;;;;;;;;;;;;;21.68;79.41;101941.94;5036585;28;19937;-51
2023/06/07 05:44:17;;;;;;;;;;;;;;;21.56;80.44;101948.25;5038574;28;19913;-51
2023/06/07 05:46:43;;;;;;;;;;;;;;;21.78;79.18;101950.31;5059493;28;19920;-54
2023/06/07 05:49:08;;;;;;;;;;;;;;;21.90;78.35;101950.25;5041945;28;19913;-54
2023/06/07 05:51:34;;;;;;;;;;;;;;;21.40;80.70;101958.00;5038292;28;19935;-53
2023/06/07 05:53:59;;;;;;;;;;;;;;;21.64;79.61;101952.47;5060077;28;19924;-54
2023/06/07 05:56:25;;;;;;;;;;;;;;;21.48;80.73;101956.81;5061597;28;19913;-56
2023/06/07 05:58:50;;;;;;;;;;;;;;;21.80;78.43;101952.78;5059124;28;19917;-53
2023/06/07 06:01:17;;;;;;;;;;;;;;;21.72;78.87;101954.03;5055739;28;19913;-54
2023/06/07 06:03:42;;;;;;;;;;;;;;;22.01;77.83;101946.63;5053281;28;19913;-56
2023/06/07 06:06:15;;;;;;;;;;;;;;;22.00;77.59;101949.59;5056760;28;19912;-51
2023/06/07 06:08:40;;;;;;;;;;;;;;;22.06;77.19;101948.63;5056058;28;19976;-53
2023/06/07 06:11:06;;;;;;;;;;;;;;;22.25;76.13;101948.38;5056857;28;19936;-52
2023/06/07 06:13:32;;;;;;;;;;;;;;;22.29;75.71;101952.25;5058097;28;19917;-52
2023/06/07 06:15:58;;;;;;;;;;;;;;;22.45;73.79;101959.63;5054203;28;19913;-52
2023/06/07 06:18:24;;;;;;;;;;;;;;;22.24;74.17;101963.09;5058378;28;19935;-53
2023/06/07 06:20:49;;;;;;;;;;;;;;;22.56;72.64;101965.25;5051789;28;19917;-54
2023/06/07 06:23:15;;;;;;;;;;;;;;;22.66;71.80;101959.97;5059024;28;19912;-55
2023/06/07 06:25:40;;;;;;;;;;;;;;;22.82;71.30;101966.44;5056436;28;19948;-55
2023/06/07 06:28:05;;;;;;;;;;;;;;;22.90;70.83;101970.66;5053727;28;19919;-55
2023/06/07 06:30:31;;;;;;;;;;;;;;;23.08;69.56;101966.00;5056298;28;20383;-53
2023/06/07 06:32:57;;;;;;;;;;;;;;;23.06;69.61;101966.22;5043433;28;19920;-53
2023/06/07 06:35:22;;;;;;;;;;;;;;;23.12;69.05;101978.03;5060966;28;19920;-56
2023/06/07 06:37:48;;;;;;;;;;;;;;;23.28;68.95;101976.34;5058933;28;19909;-53
2023/06/07 06:40:13;;;;;;;;;;;;;;;23.49;67.37;101983.72;5060886;28;20021;-54
2023/06/07 06:42:39;;;;;;;;;;;;;;;23.41;67.27;101992.34;5061076;28;19917;-54
2023/06/07 06:45:22;;;;;;;;;;;;;;;23.63;67.08;101991.50;5036351;28;19913;-53
2023/06/07 06:47:48;;;;;;;;;;;;;;;23.67;66.05;102000.84;5054946;28;19913;-53
2023/06/07 06:50:13;;;;;;;;;;;;;;;23.74;65.68;102000.63;5042268;28;19925;-54
2023/06/07 06:52:41;;;;;;;;;;;;;;;23.74;65.86;102006.91;5056798;28;19920;-53
2023/06/07 06:55:07;;;;;;;;;;;;;;;23.81;64.97;101990.34;5057453;28;19924;-53
2023/06/07 06:57:33;;;;;;;;;;;;;;;23.85;65.12;101996.09;5057966;28;19913;-53
2023/06/07 06:59:58;;;;;;;;;;;;;;;24.08;64.30;101992.25;5053411;28;19924;-54
2023/06/07 07:02:24;;;;;;;;;;;;;;;24.20;63.48;101987.44;5061682;28;20021;-54
2023/06/07 07:04:50;;;;;;;;;;;;;;;24.08;64.06;101992.25;5060077;28;19928;-55
2023/06/07 07:07:15;;;;;;;;;;;;;;;24.04;64.40;102005.59;5043669;28;19943;-56
2023/06/07 07:09:41;;;;;;;;;;;;;;;23.91;64.70;102012.28;5061004;28;19944;-52
2023/06/07 07:12:07;;;;;;;;;;;;;;;23.56;65.71;102016.28;5061385;28;19920;-55
2023/06/07 07:14:32;;;;;;;;;;;;;;;23.66;65.82;102009.28;5038160;28;19913;-52
2023/06/07 07:16:57;;;;;;;;;;;;;;;23.77;65.49;102013.78;5061341;28;19935;-55
2023/06/07 07:19:23;;;;;;;;;;;;;;;23.68;64.83;102013.41;5059563;28;19912;-55
2023/06/07 07:21:48;;;;;;;;;;;;;;;23.76;64.86;102012.13;5060647;28;20112;-54
2023/06/07 07:24:14;;;;;;;;;;;;;;;23.77;65.33;102003.66;5060779;28;19940;-55
2023/06/07 07:26:39;;;;;;;;;;;;;;;24.00;64.94;101995.44;5060822;28;19913;-52
2023/06/07 07:29:05;;;;;;;;;;;;;;;24.09;64.16;101991.19;5058111;28;19928;-53
2023/06/07 07:31:33;;;;;;;;;;;;;;;24.06;64.69;101992.50;5056108;28;19920;-53
2023/06/07 07:33:59;;;;;;;;;;;;;;;24.15;64.25;101984.66;5056487;28;19925;-54
2023/06/07 07:36:24;;;;;;;;;;;;;;;24.36;63.29;101993.03;5060817;28;19913;-52
2023/06/07 07:38:51;;;;;;;;;;;;;;;24.14;63.85;101993.13;5056950;28;19940;-53
2023/06/07 07:41:17;;;;;;;;;;;;;;;24.15;63.01;101990.13;5060481;28;19917;-55
2023/06/07 07:43:42;;;;;;;;;;;;;;;24.18;63.04;101992.34;5060657;28;19928;-54
2023/06/07 07:46:08;;;;;;;;;;;;;;;24.56;62.18;101997.03;5062569;28;19919;-52
2023/06/07 07:48:33;;;;;;;;;;;;;;;24.66;61.59;101988.88;5064544;28;19940;-54
2023/06/07 07:50:59;;;;;;;;;;;;;;;24.84;60.73;102000.50;5059644;28;19917;-54
2023/06/07 07:53:25;;;;;;;;;;;;;;;25.15;59.77;102004.25;5054542;28;19916;-51
2023/06/07 07:55:51;;;;;;;;;;;;;;;25.14;59.41;102012.72;5055356;28;19951;-55
2023/06/07 07:58:16;;;;;;;;;;;;;;;25.10;58.63;102006.97;5060856;28;19916;-53
2023/06/07 08:00:41;;;;;;;;;;;;;;;25.22;58.61;102006.75;5058944;28;20311;-52
2023/06/07 08:03:08;;;;;;;;;;;;;;;25.47;58.04;102008.78;5062976;28;19913;-54
2023/06/07 08:05:33;;;;;;;;;;;;;;;25.56;57.02;102011.00;5060869;28;19952;-52
2023/06/07 08:08:00;;;;;;;;;;;;;;;24.85;59.66;102013.09;5060817;28;19959;-52
2023/06/07 08:10:25;;;;;;;;;;;;;;;25.60;57.93;102012.13;5063786;28;19928;-55
2023/06/07 08:12:51;;;;;;;;;;;;;;;25.66;56.92;102021.97;5057635;28;19941;-52
2023/06/07 08:15:17;;;;;;;;;;;;;;;25.84;57.26;102023.41;5055768;28;19912;-55
2023/06/07 08:17:42;;;;;;;;;;;;;;;26.08;57.13;102019.34;5058738;28;19917;-53
2023/06/07 08:20:08;;;;;;;;;;;;;;;25.97;56.96;102013.03;5063288;28;19940;-57
2023/06/07 08:22:35;;;;;;;;;;;;;;;26.29;56.19;102011.97;5062001;28;19920;-57
2023/06/07 08:25:00;;;;;;;;;;;;;;;26.31;56.09;102020.75;5062258;28;19913;-54
2023/06/07 08:27:26;;;;;;;;;;;;;;;26.47;54.57;102019.63;5059873;28;20418;-57
2023/06/07 08:29:51;;;;;;;;;;;;;;;25.76;57.06;102004.75;5055414;28;19912;-56
2023/06/07 08:32:16;;;;;;;;;;;;;;;26.36;55.71;102006.22;5054261;28;19913;-57
2023/06/07 08:34:42;;;;;;;;;;;;;;;26.63;54.66;102009.47;5058377;28;19972;-56
2023/06/07 08:37:08;;;;;;;;;;;;;;;26.55;54.31;102001.81;5055834;28;19913;-56
2023/06/07 08:39:34;;;;;;;;;;;;;;;26.88;53.79;102001.50;5059246;28;19917;-53
2023/06/07 08:41:59;;;;;;;;;;;;;;;26.87;53.46;101997.13;5060251;28;19959;-59
2023/06/07 08:44:24;;;;;;;;;;;;;;;26.98;53.08;101995.97;5060082;28;19924;-56
2023/06/07 08:46:51;;;;;;;;;;;;;;;27.15;51.71;102000.31;5058481;28;20343;-61
2023/06/07 08:49:16;;;;;;;;;;;;;;;27.62;51.51;102009.22;5056395;28;19960;-55
2023/06/07 08:51:43;;;;;;;;;;;;;;;27.31;51.51;102004.66;5060999;28;19916;-55
2023/06/07 08:54:10;;;;;;;;;;;;;;;27.70;50.92;102011.34;5059591;28;19987;-52
2023/06/07 08:56:38;;;;;;;;;;;;;;;27.65;50.72;102008.63;5058392;28;19913;-54
2023/06/07 08:59:05;;;;;;;;;;;;;;;28.09;50.13;102009.72;5055869;28;19944;-54
2023/06/07 09:01:34;;;;;;;;;;;;;;;28.27;49.11;102016.50;5041871;28;19920;-55
2023/06/07 09:04:00;;;;;;;;;;;;;;;27.36;50.27;102011.22;5058169;28;19917;-50
2023/06/07 09:06:26;;;;;;;;;;;;;;;27.74;49.75;102012.41;5056680;28;19991;-57
2023/06/07 09:08:52;;;;;;;;;;;;;;;27.63;49.63;102008.91;5059649;28;19913;-54
2023/06/07 09:11:17;;;;;;;;;;;;;;;27.66;49.49;102009.44;5055653;28;19927;-56
2023/06/07 09:13:43;;;;;;;;;;;;;;;27.95;49.62;102016.97;5057694;28;19940;-56
2023/06/07 09:16:10;;;;;;;;;;;;;;;27.96;49.94;102018.63;5057464;28;19913;-52
2023/06/07 09:18:42;;;;;;;;;;;;;;;27.97;49.45;102015.56;5059046;28;19913;-57
2023/06/07 09:21:18;;;;;;;;;;;;;;;27.42;50.61;102008.19;5053869;28;19968;-57
2023/06/07 09:23:44;;;;;;;;;;;;;;;27.01;50.98;102006.44;5054492;28;19913;-55
2023/06/07 09:26:10;;;;;;;;;;;;;;;27.73;50.03;102005.28;5055185;28;19913;-56
2023/06/07 09:28:36;;;;;;;;;;;;;;;28.22;49.00;102008.25;5057804;28;19913;-56
2023/06/07 09:31:04;;;;;;;;;;;;;;;28.72;48.34;102007.28;5058917;28;19960;-55
2023/06/07 09:33:30;;;;;;;;;;;;;;;28.58;48.83;101996.94;5055288;28;20152;-56
2023/06/07 09:36:03;;;;;;;;;;;;;;;29.02;48.23;101999.81;5054901;28;19924;-57
2023/06/07 09:38:29;;;;;;;;;;;;;;;29.70;46.91;102005.28;5054227;28;19913;-56
2023/06/07 09:40:56;;;;;;;;;;;;;;;30.02;45.73;102010.03;5059636;28;19931;-57
2023/06/07 09:43:22;;;;;;;;;;;;;;;29.96;46.00;102007.63;5054806;28;19954;-54
2023/06/07 09:45:54;;;;;;;;;;;;;;;30.08;45.16;102010.78;5054457;28;19913;-56
2023/06/07 09:48:20;;;;;;;;;;;;;;;30.72;43.81;102006.66;5055402;28;19913;-54
2023/06/07 09:50:55;;;;;;;;;;;;;;;31.28;43.22;102010.25;5058821;28;19935;-55
2023/06/07 09:53:20;;;;;;;;;;;;;;;31.79;42.31;102010.25;5056431;28;20008;-54
2023/06/07 09:55:46;;;;;;;;;;;;;;;32.65;40.78;102010.34;5056622;28;19917;-56
2023/06/07 09:58:23;;;;;;;;;;;;;;;33.52;39.51;102011.75;5038166;28;19941;-57
2023/06/07 10:00:52;;;;;;;;;;;;;;;33.76;38.88;102016.00;5034233;28;19917;-52
2023/06/07 10:03:18;;;;;;;;;;;;;;;34.59;37.48;102018.81;5039023;28;19927;-52
2023/06/07 10:05:44;;;;;;;;;;;;;;;34.59;37.18;102019.63;5061394;28;19913;-59
2023/06/07 10:08:10;;;;;;;;;;;;;;;34.27;37.29;102012.69;5059649;28;19924;-55
2023/06/07 10:10:37;;;;;;;;;;;;;;;34.92;36.23;102011.78;5050647;28;19932;-59
2023/06/07 10:13:05;;;;;;;;;;;;;;;35.48;35.34;102005.25;5057244;28;20477;-57
2023/06/07 10:15:32;;;;;;;;;;;;;;;35.74;35.33;102017.00;5058614;28;19928;-57
2023/06/07 10:18:00;;;;;;;;;;;;;;;34.46;36.11;101998.41;5052597;28;19924;-54
2023/06/07 10:20:28;;;;;;;;;;;;;;;35.01;35.93;102007.84;5040774;28;19913;-58
2023/06/07 10:22:58;;;;;;;;;;;;;;;35.85;34.53;102014.59;5055783;28;19979;-58
2023/06/07 10:25:24;;;;;;;;;;;;;;;35.67;34.62;102010.34;5054503;28;19935;-54
2023/06/07 10:28:10;;;;;;;;;;;;;;;35.00;35.22;102013.72;5060206;28;19929;-57
2023/06/07 10:30:36;;;;;;;;;;;;;;;34.81;34.86;102011.34;5044689;28;19920;-53
2023/06/07 10:33:04;;;;;;;;;;;;;;;34.93;35.31;102005.09;5053091;28;19917;-54
2023/06/07 10:35:30;;;;;;;;;;;;;;;34.69;35.90;102006.50;5058518;28;19916;-53
2023/06/07 10:37:57;;;;;;;;;;;;;;;34.06;36.15;101998.69;5038319;28;19913;-56
2023/06/07 10:40:25;;;;;;;;;;;;;;;34.00;36.36;101989.72;5055716;28;19913;-58
2023/06/07 10:42:50;;;;;;;;;;;;;;;33.45;37.19;101995.59;5057636;28;20273;-54
2023/06/07 10:45:18;;;;;;;;;;;;;;;33.14;37.93;101984.59;5059072;28;19913;-56
2023/06/07 10:47:44;;;;;;;;;;;;;;;32.99;38.18;101970.09;5054432;28;19928;-58
2023/06/07 10:50:28;;;;;;;;;;;;;;;32.89;38.37;101975.91;5055958;28;19969;-57
2023/06/07 10:52:55;;;;;;;;;;;;;;;32.89;38.04;101968.44;5055285;28;19940;-56
2023/06/07 10:55:27;;;;;;;;;;;;;;;32.66;39.44;101987.03;5053789;28;19917;-58
2023/06/07 10:57:53;;;;;;;;;;;;;;;32.50;42.27;101974.75;5048865;28;19935;-60
2023/06/07 11:00:29;;;;;;;;;;;;;;;32.33;42.14;101984.63;5051949;28;19917;-59
2023/06/07 11:03:09;;;;;;;;;;;;;;;32.40;41.90;101989.69;5037570;28;19920;-54
2023/06/07 11:05:53;;;;;;;;;;;;;;;32.50;41.72;101985.81;5059842;28;19975;-57
2023/06/07 11:08:31;;;;;;;;;;;;;;;32.42;41.42;101988.25;5034902;28;19920;-56
2023/06/07 11:11:00;;;;;;;;;;;;;;;32.08;40.93;101983.28;5056412;28;19952;-55
2023/06/07 11:13:38;;;;;;;;;;;;;;;32.17;40.25;101976.69;5055789;28;19948;-56
2023/06/07 11:16:22;;;;;;;;;;;;;;;31.93;40.74;101973.44;5060218;28;19913;-55
2023/06/07 11:18:56;;;;;;;;;;;;;;;31.96;40.37;101972.81;5055528;28;19921;-57
2023/06/07 11:21:28;;;;;;;;;;;;;;;31.95;40.62;101973.94;5056282;28;19928;-56
2023/06/07 11:24:12;;;;;;;;;;;;;;;32.35;39.63;101985.13;5056843;28;19975;-56
2023/06/07 11:26:38;;;;;;;;;;;;;;;32.18;40.28;101974.75;5059797;28;19912;-56
2023/06/07 11:29:04;;;;;;;;;;;;;;;32.15;39.85;101970.66;5055695;28;19976;-56
2023/06/07 11:31:29;;;;;;;;;;;;;;;31.63;41.00;101964.75;5054009;28;19920;-57
2023/06/07 11:33:54;;;;;;;;;;;;;;;32.23;40.04;101971.00;5054762;28;19927;-55
2023/06/07 11:36:21;;;;;;;;;;;;;;;32.62;38.99;101972.22;5048294;28;20044;-55
2023/06/07 11:38:51;;;;;;;;;;;;;;;33.01;38.78;101965.03;5056417;28;19984;-54
2023/06/07 11:41:17;;;;;;;;;;;;;;;34.05;37.67;101970.13;5058090;28;19913;-56
2023/06/07 11:43:45;;;;;;;;;;;;;;;35.70;35.65;101962.38;5057115;28;19920;-58
2023/06/07 11:46:12;;;;;;;;;;;;;;;37.50;33.09;101963.84;5056609;28;19929;-56
2023/06/07 11:48:39;;;;;;;;;;;;;;;38.80;31.66;101969.19;5054395;28;19938;-56
2023/06/07 11:51:05;;;;;;;;;;;;;;;38.59;31.85;101964.72;5059405;28;19923;-56
2023/06/07 11:53:31;;;;;;;;;;;;;;;39.50;30.01;101972.31;5057596;28;19920;-56
2023/06/07 11:56:00;;;;;;;;;;;;;;;39.94;29.69;101968.38;5057162;28;19913;-58
2023/06/07 11:58:28;;;;;;;;;;;;;;;39.41;29.76;101968.94;5060477;28;19924;-57
2023/06/07 12:00:55;;;;;;;;;;;;;;;40.20;29.06;101968.81;5059369;28;19920;-58
2023/06/07 12:03:21;;;;;;;;;;;;;;;39.73;29.25;101957.56;5054868;28;19940;-57
2023/06/07 12:05:48;;;;;;;;;;;;;;;40.25;28.31;101971.28;5057684;28;19912;-58
2023/06/07 12:08:16;;;;;;;;;;;;;;;40.74;27.79;101974.50;5057070;28;19920;-58
2023/06/07 12:10:43;;;;;;;;;;;;;;;41.95;27.26;101965.16;5059045;28;19917;-58
2023/06/07 12:13:15;;;;;;;;;;;;;;;42.46;26.51;101968.41;5056045;28;19939;-57
2023/06/07 12:15:54;;;;;;;;;;;;;;;43.45;25.31;101976.16;5055638;28;19962;-60
2023/06/07 12:18:25;;;;;;;;;;;;;;;42.89;25.42;101964.25;5060220;28;19952;-59
2023/06/07 12:21:00;;;;;;;;;;;;;;;42.08;25.78;101960.06;5057916;28;19917;-56
2023/06/07 12:23:25;;;;;;;;;;;;;;;41.94;26.01;101962.72;5057247;28;19943;-59
2023/06/07 12:26:04;;;;;;;;;;;;;;;40.66;27.14;101951.94;5059663;28;19912;-59
2023/06/07 12:28:30;;;;;;;;;;;;;;;41.05;27.17;101948.06;5056795;28;19976;-59
2023/06/07 12:30:56;;;;;;;;;;;;;;;41.41;27.07;101954.16;5057914;28;19913;-59
2023/06/07 12:33:24;;;;;;;;;;;;;;;41.81;26.25;101950.97;5054418;28;19939;-57
2023/06/07 12:35:50;;;;;;;;;;;;;;;42.03;25.95;101942.75;5055468;28;19936;-60